sensor_id;sensor_type;location;lat;lon;timestamp;temperature;humidity
2497;DHT22;1259;48.306;14.374;2022-09-09T00:00:20;15.10;99.90
2497;DHT22;1259;48.306;14.374;2022-09-09T00:02:58;15.00;99.90
2497;DHT22;1259;48.306;14.374;2022-09-09T00:05:31;15.10;99.90
2497;DHT22;1259;48.306;14.374;2022-09-09T00:08:01;15.10;99.90
2497;DHT22;1259;48.306;14.374;2022-09-09T00:10:31;15.10;99.90
2497;DHT22;1259;48.306;14.374;2022-09-09T00:13:07;15.10;99.90
2497;DHT22;1259;48.306;14.374;2022-09-09T00:15:40;15.10;99.90
2497;DHT22;1259;48.306;14.374;2022-09-09T00:18:17;15.10;99.90
2497;DHT22;1259;48.306;14.374;2022-09-09T00:20:52;15.10;99.90
2497;DHT22;1259;48.306;14.374;2022-09-09T00:23:25;15.20;99.90
2497;DHT22;1259;48.306;14.374;2022-09-09T00:26:02;15.20;99.90
2497;DHT22;1259;48.306;14.374;2022-09-09T00:28:32;15.00;99.90
2497;DHT22;1259;48.306;14.374;2022-09-09T00:31:04;14.90;99.90
2497;DHT22;1259;48.306;14.374;2022-09-09T00:33:36;15.00;99.90
2497;DHT22;1259;48.306;14.374;2022-09-09T00:36:12;14.90;99.90
2497;DHT22;1259;48.306;14.374;2022-09-09T00:38:44;14.70;99.90
2497;DHT22;1259;48.306;14.374;2022-09-09T00:41:18;14.70;99.90
2497;DHT22;1259;48.306;14.374;2022-09-09T00:43:55;14.40;99.90
2497;DHT22;1259;48.306;14.374;2022-09-09T00:46:46;14.60;99.90
2497;DHT22;1259;48.306;14.374;2022-09-09T00:49:27;14.60;99.90
2497;DHT22;1259;48.306;14.374;2022-09-09T00:52:03;14.70;99.90
2497;DHT22;1259;48.306;14.374;2022-09-09T00:54:38;14.70;99.90
2497;DHT22;1259;48.306;14.374;2022-09-09T00:57:14;14.40;99.90
2497;DHT22;1259;48.306;14.374;2022-09-09T00:59:47;14.40;99.90
2497;DHT22;1259;48.306;14.374;2022-09-09T01:02:25;14.40;99.90
2497;DHT22;1259;48.306;14.374;2022-09-09T01:04:58;14.30;99.90
2497;DHT22;1259;48.306;14.374;2022-09-09T01:07:28;14.30;99.90
2497;DHT22;1259;48.306;14.374;2022-09-09T01:09:57;14.20;99.90
2497;DHT22;1259;48.306;14.374;2022-09-09T01:12:27;14.30;99.90
2497;DHT22;1259;48.306;14.374;2022-09-09T01:15:03;14.30;99.90
2497;DHT22;1259;48.306;14.374;2022-09-09T01:17:33;14.30;99.90
2497;DHT22;1259;48.306;14.374;2022-09-09T01:20:10;14.20;99.90
2497;DHT22;1259;48.306;14.374;2022-09-09T01:22:47;14.10;99.90
2497;DHT22;1259;48.306;14.374;2022-09-09T01:25:29;14.30;99.90
2497;DHT22;1259;48.306;14.374;2022-09-09T01:28:00;14.30;99.90
2497;DHT22;1259;48.306;14.374;2022-09-09T01:30:29;14.20;99.90
2497;DHT22;1259;48.306;14.374;2022-09-09T01:32:57;14.20;99.90
2497;DHT22;1259;48.306;14.374;2022-09-09T01:35:34;14.20;99.90
2497;DHT22;1259;48.306;14.374;2022-09-09T01:38:01;14.10;99.90
2497;DHT22;1259;48.306;14.374;2022-09-09T01:40:28;14.00;99.90
2497;DHT22;1259;48.306;14.374;2022-09-09T01:42:57;14.10;99.90
2497;DHT22;1259;48.306;14.374;2022-09-09T01:45:25;14.10;99.90
2497;DHT22;1259;48.306;14.374;2022-09-09T01:47:52;14.20;99.90
2497;DHT22;1259;48.306;14.374;2022-09-09T01:50:20;14.10;99.90
2497;DHT22;1259;48.306;14.374;2022-09-09T01:52:57;14.10;99.90
2497;DHT22;1259;48.306;14.374;2022-09-09T01:55:29;14.00;99.90
2497;DHT22;1259;48.306;14.374;2022-09-09T01:58:05;14.10;99.90
2497;DHT22;1259;48.306;14.374;2022-09-09T02:00:35;14.00;99.90
2497;DHT22;1259;48.306;14.374;2022-09-09T02:03:10;14.10;99.90
2497;DHT22;1259;48.306;14.374;2022-09-09T02:05:47;14.10;99.90
2497;DHT22;1259;48.306;14.374;2022-09-09T02:08:18;13.80;99.90
2497;DHT22;1259;48.306;14.374;2022-09-09T02:10:51;13.90;99.90
2497;DHT22;1259;48.306;14.374;2022-09-09T02:13:22;13.90;99.90
2497;DHT22;1259;48.306;14.374;2022-09-09T02:15:53;13.90;99.90
2497;DHT22;1259;48.306;14.374;2022-09-09T02:18:25;13.90;99.90
2497;DHT22;1259;48.306;14.374;2022-09-09T02:20:54;13.90;99.90
2497;DHT22;1259;48.306;14.374;2022-09-09T02:23:23;13.90;99.90
2497;DHT22;1259;48.306;14.374;2022-09-09T02:25:51;13.90;99.90
2497;DHT22;1259;48.306;14.374;2022-09-09T02:28:22;13.90;99.90
2497;DHT22;1259;48.306;14.374;2022-09-09T02:30:51;14.00;99.90
2497;DHT22;1259;48.306;14.374;2022-09-09T02:33:22;14.00;99.90
2497;DHT22;1259;48.306;14.374;2022-09-09T02:35:51;13.90;99.90
2497;DHT22;1259;48.306;14.374;2022-09-09T02:38:20;13.90;99.90
2497;DHT22;1259;48.306;14.374;2022-09-09T02:40:47;13.80;99.90
2497;DHT22;1259;48.306;14.374;2022-09-09T02:43:14;13.80;99.90
2497;DHT22;1259;48.306;14.374;2022-09-09T02:45:49;13.80;99.90
2497;DHT22;1259;48.306;14.374;2022-09-09T02:48:23;13.80;99.90
2497;DHT22;1259;48.306;14.374;2022-09-09T02:50:57;13.80;99.90
2497;DHT22;1259;48.306;14.374;2022-09-09T02:53:31;13.90;99.90
2497;DHT22;1259;48.306;14.374;2022-09-09T02:56:04;13.90;99.90
2497;DHT22;1259;48.306;14.374;2022-09-09T02:58:32;13.80;99.90
2497;DHT22;1259;48.306;14.374;2022-09-09T03:01:00;13.70;99.90
2497;DHT22;1259;48.306;14.374;2022-09-09T03:03:28;13.70;99.90
2497;DHT22;1259;48.306;14.374;2022-09-09T03:05:55;13.70;99.90
2497;DHT22;1259;48.306;14.374;2022-09-09T03:08:23;13.70;99.90
2497;DHT22;1259;48.306;14.374;2022-09-09T03:10:50;13.80;99.90
2497;DHT22;1259;48.306;14.374;2022-09-09T03:13:19;13.80;99.90
2497;DHT22;1259;48.306;14.374;2022-09-09T03:15:48;13.80;99.90
2497;DHT22;1259;48.306;14.374;2022-09-09T03:18:16;13.80;99.90
2497;DHT22;1259;48.306;14.374;2022-09-09T03:20:43;13.80;99.90
2497;DHT22;1259;48.306;14.374;2022-09-09T03:23:10;13.80;99.90
2497;DHT22;1259;48.306;14.374;2022-09-09T03:25:39;13.80;99.90
2497;DHT22;1259;48.306;14.374;2022-09-09T03:28:06;13.80;99.90
2497;DHT22;1259;48.306;14.374;2022-09-09T03:30:33;13.80;99.90
2497;DHT22;1259;48.306;14.374;2022-09-09T03:32:59;13.80;99.90
2497;DHT22;1259;48.306;14.374;2022-09-09T03:35:28;13.90;99.90
2497;DHT22;1259;48.306;14.374;2022-09-09T03:37:55;13.90;99.90
2497;DHT22;1259;48.306;14.374;2022-09-09T03:40:22;13.90;99.90
2497;DHT22;1259;48.306;14.374;2022-09-09T03:42:49;13.90;99.90
2497;DHT22;1259;48.306;14.374;2022-09-09T03:45:16;13.90;99.90
2497;DHT22;1259;48.306;14.374;2022-09-09T03:47:42;13.90;99.90
2497;DHT22;1259;48.306;14.374;2022-09-09T03:50:10;13.80;99.90
2497;DHT22;1259;48.306;14.374;2022-09-09T03:52:40;13.90;99.90
2497;DHT22;1259;48.306;14.374;2022-09-09T03:55:08;13.90;99.90
2497;DHT22;1259;48.306;14.374;2022-09-09T03:57:36;13.90;99.90
2497;DHT22;1259;48.306;14.374;2022-09-09T04:00:03;13.80;99.90
2497;DHT22;1259;48.306;14.374;2022-09-09T04:02:31;13.90;99.90
2497;DHT22;1259;48.306;14.374;2022-09-09T04:04:57;13.90;99.90
2497;DHT22;1259;48.306;14.374;2022-09-09T04:07:25;14.00;99.90
2497;DHT22;1259;48.306;14.374;2022-09-09T04:09:55;13.90;99.90
2497;DHT22;1259;48.306;14.374;2022-09-09T04:12:22;13.80;99.90
2497;DHT22;1259;48.306;14.374;2022-09-09T04:14:49;13.80;99.90
2497;DHT22;1259;48.306;14.374;2022-09-09T04:17:16;13.80;99.90
2497;DHT22;1259;48.306;14.374;2022-09-09T04:19:43;13.70;99.90
2497;DHT22;1259;48.306;14.374;2022-09-09T04:22:10;13.70;99.90
2497;DHT22;1259;48.306;14.374;2022-09-09T04:24:37;13.70;99.90
2497;DHT22;1259;48.306;14.374;2022-09-09T04:27:05;13.90;99.90
2497;DHT22;1259;48.306;14.374;2022-09-09T04:29:32;14.00;99.90
2497;DHT22;1259;48.306;14.374;2022-09-09T04:32:00;14.00;99.90
2497;DHT22;1259;48.306;14.374;2022-09-09T04:34:27;14.00;99.90
2497;DHT22;1259;48.306;14.374;2022-09-09T04:36:56;13.90;99.90
2497;DHT22;1259;48.306;14.374;2022-09-09T04:39:22;13.90;99.90
2497;DHT22;1259;48.306;14.374;2022-09-09T04:41:50;13.90;99.90
2497;DHT22;1259;48.306;14.374;2022-09-09T04:44:18;13.90;99.90
2497;DHT22;1259;48.306;14.374;2022-09-09T04:46:45;13.80;99.90
2497;DHT22;1259;48.306;14.374;2022-09-09T04:49:12;13.90;99.90
2497;DHT22;1259;48.306;14.374;2022-09-09T04:51:39;13.90;99.90
2497;DHT22;1259;48.306;14.374;2022-09-09T04:54:06;14.00;99.90
2497;DHT22;1259;48.306;14.374;2022-09-09T04:56:33;14.10;99.90
2497;DHT22;1259;48.306;14.374;2022-09-09T04:58:59;14.20;99.90
2497;DHT22;1259;48.306;14.374;2022-09-09T05:01:29;14.20;99.90
2497;DHT22;1259;48.306;14.374;2022-09-09T05:03:57;14.20;99.90
2497;DHT22;1259;48.306;14.374;2022-09-09T05:06:24;14.20;99.90
2497;DHT22;1259;48.306;14.374;2022-09-09T05:08:51;14.20;99.90
2497;DHT22;1259;48.306;14.374;2022-09-09T05:11:20;14.20;99.90
2497;DHT22;1259;48.306;14.374;2022-09-09T05:13:48;14.30;99.90
2497;DHT22;1259;48.306;14.374;2022-09-09T05:16:16;14.30;99.90
2497;DHT22;1259;48.306;14.374;2022-09-09T05:18:46;14.30;99.90
2497;DHT22;1259;48.306;14.374;2022-09-09T05:21:14;14.30;99.90
2497;DHT22;1259;48.306;14.374;2022-09-09T05:23:41;14.40;99.90
2497;DHT22;1259;48.306;14.374;2022-09-09T05:26:12;14.40;99.90
2497;DHT22;1259;48.306;14.374;2022-09-09T05:28:40;14.40;99.90
2497;DHT22;1259;48.306;14.374;2022-09-09T05:31:10;14.40;99.90
2497;DHT22;1259;48.306;14.374;2022-09-09T05:33:39;14.60;99.90
2497;DHT22;1259;48.306;14.374;2022-09-09T05:36:09;14.70;99.90
2497;DHT22;1259;48.306;14.374;2022-09-09T05:38:39;14.90;99.90
2497;DHT22;1259;48.306;14.374;2022-09-09T05:41:07;14.90;99.90
2497;DHT22;1259;48.306;14.374;2022-09-09T05:43:35;15.00;99.90
2497;DHT22;1259;48.306;14.374;2022-09-09T05:46:04;14.90;99.90
2497;DHT22;1259;48.306;14.374;2022-09-09T05:48:32;14.80;99.90
2497;DHT22;1259;48.306;14.374;2022-09-09T05:51:00;14.80;99.90
2497;DHT22;1259;48.306;14.374;2022-09-09T05:53:30;14.80;99.90
2497;DHT22;1259;48.306;14.374;2022-09-09T05:56:00;14.80;99.90
2497;DHT22;1259;48.306;14.374;2022-09-09T05:58:29;14.80;99.90
2497;DHT22;1259;48.306;14.374;2022-09-09T06:01:01;14.90;99.90
2497;DHT22;1259;48.306;14.374;2022-09-09T06:03:28;15.20;99.90
2497;DHT22;1259;48.306;14.374;2022-09-09T06:05:59;15.10;99.90
2497;DHT22;1259;48.306;14.374;2022-09-09T06:08:28;15.00;99.90
2497;DHT22;1259;48.306;14.374;2022-09-09T06:11:01;14.90;99.90
2497;DHT22;1259;48.306;14.374;2022-09-09T06:13:29;14.90;99.90
2497;DHT22;1259;48.306;14.374;2022-09-09T06:15:57;15.00;99.90
2497;DHT22;1259;48.306;14.374;2022-09-09T06:18:24;15.10;99.90
2497;DHT22;1259;48.306;14.374;2022-09-09T06:20:58;15.20;99.90
2497;DHT22;1259;48.306;14.374;2022-09-09T06:23:28;15.30;99.90
2497;DHT22;1259;48.306;14.374;2022-09-09T06:26:03;15.30;99.90
2497;DHT22;1259;48.306;14.374;2022-09-09T06:28:31;15.30;99.90
2497;DHT22;1259;48.306;14.374;2022-09-09T06:30:58;15.20;99.90
2497;DHT22;1259;48.306;14.374;2022-09-09T06:33:26;15.10;99.90
2497;DHT22;1259;48.306;14.374;2022-09-09T06:35:54;15.10;99.90
2497;DHT22;1259;48.306;14.374;2022-09-09T06:38:22;15.10;99.90
2497;DHT22;1259;48.306;14.374;2022-09-09T06:40:54;15.10;99.90
2497;DHT22;1259;48.306;14.374;2022-09-09T06:43:21;15.20;99.90
2497;DHT22;1259;48.306;14.374;2022-09-09T06:45:56;15.20;99.90
2497;DHT22;1259;48.306;14.374;2022-09-09T06:48:23;15.10;99.90
2497;DHT22;1259;48.306;14.374;2022-09-09T06:50:51;15.20;99.90
2497;DHT22;1259;48.306;14.374;2022-09-09T06:53:19;15.20;99.90
2497;DHT22;1259;48.306;14.374;2022-09-09T06:55:46;15.40;99.90
2497;DHT22;1259;48.306;14.374;2022-09-09T06:58:14;15.50;99.90
2497;DHT22;1259;48.306;14.374;2022-09-09T07:00:41;15.50;99.90
2497;DHT22;1259;48.306;14.374;2022-09-09T07:03:09;15.50;99.90
2497;DHT22;1259;48.306;14.374;2022-09-09T07:05:37;15.80;99.90
2497;DHT22;1259;48.306;14.374;2022-09-09T07:08:04;16.00;99.90
2497;DHT22;1259;48.306;14.374;2022-09-09T07:10:31;16.20;99.90
2497;DHT22;1259;48.306;14.374;2022-09-09T07:12:59;16.50;99.90
2497;DHT22;1259;48.306;14.374;2022-09-09T07:15:29;16.60;99.90
2497;DHT22;1259;48.306;14.374;2022-09-09T07:18:00;16.70;99.90
2497;DHT22;1259;48.306;14.374;2022-09-09T07:20:27;16.90;99.90
2497;DHT22;1259;48.306;14.374;2022-09-09T07:22:55;17.10;99.90
2497;DHT22;1259;48.306;14.374;2022-09-09T07:25:24;17.20;99.90
2497;DHT22;1259;48.306;14.374;2022-09-09T07:27:52;17.20;99.90
2497;DHT22;1259;48.306;14.374;2022-09-09T07:30:19;17.20;99.90
2497;DHT22;1259;48.306;14.374;2022-09-09T07:32:50;17.20;99.90
2497;DHT22;1259;48.306;14.374;2022-09-09T07:35:17;17.10;99.90
2497;DHT22;1259;48.306;14.374;2022-09-09T07:37:44;17.10;99.90
2497;DHT22;1259;48.306;14.374;2022-09-09T07:40:11;17.00;99.90
2497;DHT22;1259;48.306;14.374;2022-09-09T07:42:38;17.00;99.90
2497;DHT22;1259;48.306;14.374;2022-09-09T07:45:05;17.00;99.90
2497;DHT22;1259;48.306;14.374;2022-09-09T07:47:32;17.00;99.90
2497;DHT22;1259;48.306;14.374;2022-09-09T07:50:01;17.20;99.90
2497;DHT22;1259;48.306;14.374;2022-09-09T07:52:28;17.20;99.90
2497;DHT22;1259;48.306;14.374;2022-09-09T07:54:55;17.10;99.90
2497;DHT22;1259;48.306;14.374;2022-09-09T07:57:22;17.40;99.90
2497;DHT22;1259;48.306;14.374;2022-09-09T07:59:49;17.20;99.90
2497;DHT22;1259;48.306;14.374;2022-09-09T08:02:17;17.30;99.90
2497;DHT22;1259;48.306;14.374;2022-09-09T08:04:44;17.10;99.90
2497;DHT22;1259;48.306;14.374;2022-09-09T08:07:13;17.10;99.90
2497;DHT22;1259;48.306;14.374;2022-09-09T08:09:40;17.00;99.90
2497;DHT22;1259;48.306;14.374;2022-09-09T08:12:07;17.10;99.90
2497;DHT22;1259;48.306;14.374;2022-09-09T08:14:34;17.00;99.90
2497;DHT22;1259;48.306;14.374;2022-09-09T08:17:01;17.00;99.90
2497;DHT22;1259;48.306;14.374;2022-09-09T08:19:28;17.10;99.90
2497;DHT22;1259;48.306;14.374;2022-09-09T08:21:55;17.20;99.90
2497;DHT22;1259;48.306;14.374;2022-09-09T08:24:23;17.30;99.90
2497;DHT22;1259;48.306;14.374;2022-09-09T08:26:50;17.20;99.90
2497;DHT22;1259;48.306;14.374;2022-09-09T08:29:18;17.30;99.90
2497;DHT22;1259;48.306;14.374;2022-09-09T08:31:46;17.30;99.90
2497;DHT22;1259;48.306;14.374;2022-09-09T08:34:14;17.60;99.90
2497;DHT22;1259;48.306;14.374;2022-09-09T08:36:46;17.70;99.90
2497;DHT22;1259;48.306;14.374;2022-09-09T08:39:14;17.80;99.90
2497;DHT22;1259;48.306;14.374;2022-09-09T08:41:56;17.80;99.90
2497;DHT22;1259;48.306;14.374;2022-09-09T08:44:36;17.80;99.90
2497;DHT22;1259;48.306;14.374;2022-09-09T08:47:14;17.90;99.90
2497;DHT22;1259;48.306;14.374;2022-09-09T08:49:58;17.90;99.90
2497;DHT22;1259;48.306;14.374;2022-09-09T08:52:31;17.90;99.90
2497;DHT22;1259;48.306;14.374;2022-09-09T08:55:15;17.90;99.90
2497;DHT22;1259;48.306;14.374;2022-09-09T08:57:49;17.60;99.90
2497;DHT22;1259;48.306;14.374;2022-09-09T09:00:18;17.90;99.90
2497;DHT22;1259;48.306;14.374;2022-09-09T09:02:52;17.90;99.90
2497;DHT22;1259;48.306;14.374;2022-09-09T09:05:27;17.90;99.90
2497;DHT22;1259;48.306;14.374;2022-09-09T09:08:01;18.00;99.90
2497;DHT22;1259;48.306;14.374;2022-09-09T09:10:43;18.00;99.90
2497;DHT22;1259;48.306;14.374;2022-09-09T09:13:17;18.10;99.90
2497;DHT22;1259;48.306;14.374;2022-09-09T09:15:49;18.10;99.90
2497;DHT22;1259;48.306;14.374;2022-09-09T09:18:18;18.20;99.90
2497;DHT22;1259;48.306;14.374;2022-09-09T09:20:55;18.20;99.90
2497;DHT22;1259;48.306;14.374;2022-09-09T09:23:28;18.20;99.90
2497;DHT22;1259;48.306;14.374;2022-09-09T09:25:59;18.00;99.90
2497;DHT22;1259;48.306;14.374;2022-09-09T09:28:30;17.90;99.90
2497;DHT22;1259;48.306;14.374;2022-09-09T09:31:01;17.60;99.90
2497;DHT22;1259;48.306;14.374;2022-09-09T09:33:34;17.60;99.90
2497;DHT22;1259;48.306;14.374;2022-09-09T09:36:02;17.70;99.90
2497;DHT22;1259;48.306;14.374;2022-09-09T09:38:31;17.70;99.90
2497;DHT22;1259;48.306;14.374;2022-09-09T09:40:59;17.60;99.90
2497;DHT22;1259;48.306;14.374;2022-09-09T09:43:30;17.70;99.90
2497;DHT22;1259;48.306;14.374;2022-09-09T09:45:58;17.60;99.90
2497;DHT22;1259;48.306;14.374;2022-09-09T09:48:25;17.60;99.90
2497;DHT22;1259;48.306;14.374;2022-09-09T09:50:55;17.60;99.90
2497;DHT22;1259;48.306;14.374;2022-09-09T09:53:25;17.40;99.90
2497;DHT22;1259;48.306;14.374;2022-09-09T09:55:57;17.40;99.90
2497;DHT22;1259;48.306;14.374;2022-09-09T09:58:25;17.40;99.90
2497;DHT22;1259;48.306;14.374;2022-09-09T10:00:54;17.50;99.90
2497;DHT22;1259;48.306;14.374;2022-09-09T10:03:24;17.50;99.90
2497;DHT22;1259;48.306;14.374;2022-09-09T10:05:52;17.60;99.90
2497;DHT22;1259;48.306;14.374;2022-09-09T10:08:19;17.60;99.90
2497;DHT22;1259;48.306;14.374;2022-09-09T10:11:03;17.70;99.90
2497;DHT22;1259;48.306;14.374;2022-09-09T10:13:39;17.80;99.90
2497;DHT22;1259;48.306;14.374;2022-09-09T10:16:22;17.90;99.90
2497;DHT22;1259;48.306;14.374;2022-09-09T10:18:59;17.90;99.90
2497;DHT22;1259;48.306;14.374;2022-09-09T10:21:41;17.70;99.90
2497;DHT22;1259;48.306;14.374;2022-09-09T10:24:27;17.70;99.90
2497;DHT22;1259;48.306;14.374;2022-09-09T10:27:03;17.80;99.90
2497;DHT22;1259;48.306;14.374;2022-09-09T10:29:41;17.50;99.90
2497;DHT22;1259;48.306;14.374;2022-09-09T10:32:28;17.60;99.90
2497;DHT22;1259;48.306;14.374;2022-09-09T10:35:09;17.80;99.90
2497;DHT22;1259;48.306;14.374;2022-09-09T10:37:56;17.90;99.90
2497;DHT22;1259;48.306;14.374;2022-09-09T10:40:33;18.00;99.90
2497;DHT22;1259;48.306;14.374;2022-09-09T10:43:16;18.00;99.90
2497;DHT22;1259;48.306;14.374;2022-09-09T10:45:55;18.00;99.90
2497;DHT22;1259;48.306;14.374;2022-09-09T10:48:41;18.10;99.90
2497;DHT22;1259;48.306;14.374;2022-09-09T10:51:25;18.30;99.90
2497;DHT22;1259;48.306;14.374;2022-09-09T10:54:06;18.30;99.90
2497;DHT22;1259;48.306;14.374;2022-09-09T10:56:37;18.50;99.90
2497;DHT22;1259;48.306;14.374;2022-09-09T10:59:07;18.60;99.90
2497;DHT22;1259;48.306;14.374;2022-09-09T11:01:44;18.60;99.90
2497;DHT22;1259;48.306;14.374;2022-09-09T11:04:20;18.50;99.90
2497;DHT22;1259;48.306;14.374;2022-09-09T11:06:52;18.40;99.90
2497;DHT22;1259;48.306;14.374;2022-09-09T11:09:23;18.20;99.90
2497;DHT22;1259;48.306;14.374;2022-09-09T11:11:53;18.00;99.90
2497;DHT22;1259;48.306;14.374;2022-09-09T11:14:27;17.70;99.90
2497;DHT22;1259;48.306;14.374;2022-09-09T11:16:58;17.60;99.90
2497;DHT22;1259;48.306;14.374;2022-09-09T11:19:31;17.60;99.90
2497;DHT22;1259;48.306;14.374;2022-09-09T11:22:02;17.60;99.90
2497;DHT22;1259;48.306;14.374;2022-09-09T11:24:34;17.70;99.90
2497;DHT22;1259;48.306;14.374;2022-09-09T11:27:09;17.70;99.90
2497;DHT22;1259;48.306;14.374;2022-09-09T11:30:00;17.80;99.90
2497;DHT22;1259;48.306;14.374;2022-09-09T11:35:52;17.70;99.90
2497;DHT22;1259;48.306;14.374;2022-09-09T11:38:26;17.70;99.90
2497;DHT22;1259;48.306;14.374;2022-09-09T11:40:59;17.70;99.90
2497;DHT22;1259;48.306;14.374;2022-09-09T11:43:30;17.80;99.90
2497;DHT22;1259;48.306;14.374;2022-09-09T11:46:00;17.90;99.90
2497;DHT22;1259;48.306;14.374;2022-09-09T11:48:33;17.90;99.90
2497;DHT22;1259;48.306;14.374;2022-09-09T11:51:05;17.90;99.90
2497;DHT22;1259;48.306;14.374;2022-09-09T11:53:34;18.10;99.90
2497;DHT22;1259;48.306;14.374;2022-09-09T11:56:03;18.10;99.90
2497;DHT22;1259;48.306;14.374;2022-09-09T11:58:38;18.20;99.90
2497;DHT22;1259;48.306;14.374;2022-09-09T12:04:30;18.20;99.90
2497;DHT22;1259;48.306;14.374;2022-09-09T12:07:00;18.30;99.90
2497;DHT22;1259;48.306;14.374;2022-09-09T12:09:45;18.20;99.90
2497;DHT22;1259;48.306;14.374;2022-09-09T12:12:29;17.90;99.90
2497;DHT22;1259;48.306;14.374;2022-09-09T12:15:03;17.80;99.90
2497;DHT22;1259;48.306;14.374;2022-09-09T12:17:46;17.80;99.90
2497;DHT22;1259;48.306;14.374;2022-09-09T12:20:17;17.80;99.90
2497;DHT22;1259;48.306;14.374;2022-09-09T12:22:57;17.90;99.90
2497;DHT22;1259;48.306;14.374;2022-09-09T12:25:32;17.90;99.90
2497;DHT22;1259;48.306;14.374;2022-09-09T12:28:05;18.00;99.90
2497;DHT22;1259;48.306;14.374;2022-09-09T12:30:43;17.80;99.90
2497;DHT22;1259;48.306;14.374;2022-09-09T12:33:18;17.80;99.90
2497;DHT22;1259;48.306;14.374;2022-09-09T12:35:51;17.90;99.90
2497;DHT22;1259;48.306;14.374;2022-09-09T12:38:27;18.00;99.90
2497;DHT22;1259;48.306;14.374;2022-09-09T12:40:58;18.10;99.90
2497;DHT22;1259;48.306;14.374;2022-09-09T12:43:27;18.20;99.90
2497;DHT22;1259;48.306;14.374;2022-09-09T12:45:56;18.20;99.90
2497;DHT22;1259;48.306;14.374;2022-09-09T12:48:30;18.40;99.90
2497;DHT22;1259;48.306;14.374;2022-09-09T12:51:00;18.40;99.90
2497;DHT22;1259;48.306;14.374;2022-09-09T12:53:32;18.40;99.90
2497;DHT22;1259;48.306;14.374;2022-09-09T12:56:03;18.50;99.90
2497;DHT22;1259;48.306;14.374;2022-09-09T12:58:33;18.70;99.90
2497;DHT22;1259;48.306;14.374;2022-09-09T13:01:02;18.50;99.90
2497;DHT22;1259;48.306;14.374;2022-09-09T13:03:31;18.50;99.90
2497;DHT22;1259;48.306;14.374;2022-09-09T13:05:59;18.50;99.90
2497;DHT22;1259;48.306;14.374;2022-09-09T13:08:38;18.50;99.90
2497;DHT22;1259;48.306;14.374;2022-09-09T13:11:10;18.50;99.90
2497;DHT22;1259;48.306;14.374;2022-09-09T13:13:40;18.60;99.90
2497;DHT22;1259;48.306;14.374;2022-09-09T13:16:19;18.60;99.90
2497;DHT22;1259;48.306;14.374;2022-09-09T13:18:46;18.40;99.90
2497;DHT22;1259;48.306;14.374;2022-09-09T13:21:13;18.30;99.90
2497;DHT22;1259;48.306;14.374;2022-09-09T13:23:42;18.30;99.90
2497;DHT22;1259;48.306;14.374;2022-09-09T13:26:22;18.30;99.90
2497;DHT22;1259;48.306;14.374;2022-09-09T13:28:50;18.30;99.90
2497;DHT22;1259;48.306;14.374;2022-09-09T13:31:23;18.20;99.90
2497;DHT22;1259;48.306;14.374;2022-09-09T13:33:53;18.30;99.90
2497;DHT22;1259;48.306;14.374;2022-09-09T13:36:29;18.20;99.90
2497;DHT22;1259;48.306;14.374;2022-09-09T13:38:59;18.20;99.90
2497;DHT22;1259;48.306;14.374;2022-09-09T13:41:29;18.20;99.90
2497;DHT22;1259;48.306;14.374;2022-09-09T13:43:57;18.20;99.90
2497;DHT22;1259;48.306;14.374;2022-09-09T13:46:30;18.10;99.90
2497;DHT22;1259;48.306;14.374;2022-09-09T13:48:59;18.30;99.90
2497;DHT22;1259;48.306;14.374;2022-09-09T13:51:33;18.30;99.90
2497;DHT22;1259;48.306;14.374;2022-09-09T13:54:04;18.30;99.90
2497;DHT22;1259;48.306;14.374;2022-09-09T13:56:32;18.20;99.90
2497;DHT22;1259;48.306;14.374;2022-09-09T13:58:59;18.20;99.90
2497;DHT22;1259;48.306;14.374;2022-09-09T14:01:26;18.10;99.90
2497;DHT22;1259;48.306;14.374;2022-09-09T14:03:53;18.20;99.90
2497;DHT22;1259;48.306;14.374;2022-09-09T14:06:21;18.20;99.90
2497;DHT22;1259;48.306;14.374;2022-09-09T14:08:50;18.10;99.90
2497;DHT22;1259;48.306;14.374;2022-09-09T14:11:18;18.20;99.90
2497;DHT22;1259;48.306;14.374;2022-09-09T14:13:47;18.10;99.90
2497;DHT22;1259;48.306;14.374;2022-09-09T14:16:15;18.10;99.90
2497;DHT22;1259;48.306;14.374;2022-09-09T14:18:42;18.10;99.90
2497;DHT22;1259;48.306;14.374;2022-09-09T14:21:12;17.90;99.90
2497;DHT22;1259;48.306;14.374;2022-09-09T14:23:39;17.80;99.90
2497;DHT22;1259;48.306;14.374;2022-09-09T14:26:06;17.70;99.90
2497;DHT22;1259;48.306;14.374;2022-09-09T14:28:36;17.70;99.90
2497;DHT22;1259;48.306;14.374;2022-09-09T14:31:04;17.60;99.90
2497;DHT22;1259;48.306;14.374;2022-09-09T14:33:31;17.60;99.90
2497;DHT22;1259;48.306;14.374;2022-09-09T14:35:59;17.50;99.90
2497;DHT22;1259;48.306;14.374;2022-09-09T14:38:29;17.50;99.90
2497;DHT22;1259;48.306;14.374;2022-09-09T14:40:56;17.50;99.90
2497;DHT22;1259;48.306;14.374;2022-09-09T14:43:24;17.50;99.90
2497;DHT22;1259;48.306;14.374;2022-09-09T14:45:53;17.50;99.90
2497;DHT22;1259;48.306;14.374;2022-09-09T14:48:20;17.50;99.90
2497;DHT22;1259;48.306;14.374;2022-09-09T14:50:46;17.40;99.90
2497;DHT22;1259;48.306;14.374;2022-09-09T14:53:16;17.50;99.90
2497;DHT22;1259;48.306;14.374;2022-09-09T14:55:43;17.50;99.90
2497;DHT22;1259;48.306;14.374;2022-09-09T14:58:12;17.50;99.90
2497;DHT22;1259;48.306;14.374;2022-09-09T15:00:39;17.60;99.90
2497;DHT22;1259;48.306;14.374;2022-09-09T15:03:08;17.50;99.90
2497;DHT22;1259;48.306;14.374;2022-09-09T15:05:36;17.50;99.90
2497;DHT22;1259;48.306;14.374;2022-09-09T15:08:03;17.60;99.90
2497;DHT22;1259;48.306;14.374;2022-09-09T15:10:30;17.50;99.90
2497;DHT22;1259;48.306;14.374;2022-09-09T15:12:58;17.50;99.90
2497;DHT22;1259;48.306;14.374;2022-09-09T15:15:25;17.70;99.90
2497;DHT22;1259;48.306;14.374;2022-09-09T15:17:52;17.60;99.90
2497;DHT22;1259;48.306;14.374;2022-09-09T15:20:21;17.70;99.90
2497;DHT22;1259;48.306;14.374;2022-09-09T15:22:48;17.80;99.90
2497;DHT22;1259;48.306;14.374;2022-09-09T15:25:16;17.90;99.90
2497;DHT22;1259;48.306;14.374;2022-09-09T15:27:43;17.70;99.90
2497;DHT22;1259;48.306;14.374;2022-09-09T15:30:11;17.70;99.90
2497;DHT22;1259;48.306;14.374;2022-09-09T15:32:38;17.70;99.90
2497;DHT22;1259;48.306;14.374;2022-09-09T15:35:06;17.80;99.90
2497;DHT22;1259;48.306;14.374;2022-09-09T15:37:34;17.70;99.90
2497;DHT22;1259;48.306;14.374;2022-09-09T15:40:02;17.50;99.90
2497;DHT22;1259;48.306;14.374;2022-09-09T15:42:29;17.30;99.90
2497;DHT22;1259;48.306;14.374;2022-09-09T15:44:56;17.40;99.90
2497;DHT22;1259;48.306;14.374;2022-09-09T15:47:23;17.50;99.90
2497;DHT22;1259;48.306;14.374;2022-09-09T15:49:49;17.30;99.90
2497;DHT22;1259;48.306;14.374;2022-09-09T15:52:17;17.40;99.90
2497;DHT22;1259;48.306;14.374;2022-09-09T15:54:45;17.40;99.90
2497;DHT22;1259;48.306;14.374;2022-09-09T15:57:12;17.20;99.90
2497;DHT22;1259;48.306;14.374;2022-09-09T15:59:40;17.10;99.90
2497;DHT22;1259;48.306;14.374;2022-09-09T16:02:07;17.10;99.90
2497;DHT22;1259;48.306;14.374;2022-09-09T16:04:33;17.10;99.90
2497;DHT22;1259;48.306;14.374;2022-09-09T16:07:02;16.90;99.90
2497;DHT22;1259;48.306;14.374;2022-09-09T16:09:30;16.90;99.90
2497;DHT22;1259;48.306;14.374;2022-09-09T16:11:59;16.90;99.90